sensor_id;sensor_type;location;lat;lon;timestamp;P1;durP1;ratioP1;P2;durP2;ratioP2
11334;SDS011;5722;42.620;23.374;2022-11-15T00:00:31;36.77;;;22.40;;
11334;SDS011;5722;42.620;23.374;2022-11-15T00:03:03;41.33;;;24.90;;
11334;SDS011;5722;42.620;23.374;2022-11-15T00:05:37;29.23;;;19.07;;
11334;SDS011;5722;42.620;23.374;2022-11-15T00:08:04;27.60;;;18.13;;
11334;SDS011;5722;42.620;23.374;2022-11-15T00:10:33;43.53;;;27.53;;
11334;SDS011;5722;42.620;23.374;2022-11-15T00:13:10;42.47;;;27.27;;
11334;SDS011;5722;42.620;23.374;2022-11-15T00:16:29;37.23;;;23.03;;
11334;SDS011;5722;42.620;23.374;2022-11-15T00:18:57;36.40;;;25.00;;
11334;SDS011;5722;42.620;23.374;2022-11-15T00:21:29;31.07;;;20.03;;
11334;SDS011;5722;42.620;23.374;2022-11-15T00:24:09;30.53;;;20.03;;
11334;SDS011;5722;42.620;23.374;2022-11-15T00:26:40;36.70;;;22.20;;
11334;SDS011;5722;42.620;23.374;2022-11-15T00:29:10;34.17;;;20.93;;
11334;SDS011;5722;42.620;23.374;2022-11-15T00:37:21;33.80;;;19.53;;
11334;SDS011;5722;42.620;23.374;2022-11-15T00:42:52;37.47;;;23.67;;
11334;SDS011;5722;42.620;23.374;2022-11-15T00:45:35;42.97;;;26.37;;
11334;SDS011;5722;42.620;23.374;2022-11-15T00:48:11;46.63;;;28.87;;
11334;SDS011;5722;42.620;23.374;2022-11-15T00:56:43;32.37;;;20.77;;
11334;SDS011;5722;42.620;23.374;2022-11-15T00:59:11;32.93;;;20.50;;
11334;SDS011;5722;42.620;23.374;2022-11-15T01:01:40;36.80;;;22.37;;
11334;SDS011;5722;42.620;23.374;2022-11-15T01:04:14;37.70;;;21.50;;
11334;SDS011;5722;42.620;23.374;2022-11-15T01:09:48;33.00;;;23.27;;
11334;SDS011;5722;42.620;23.374;2022-11-15T01:12:18;35.40;;;24.40;;
11334;SDS011;5722;42.620;23.374;2022-11-15T01:14:51;36.80;;;21.17;;
11334;SDS011;5722;42.620;23.374;2022-11-15T01:17:30;40.13;;;23.03;;
11334;SDS011;5722;42.620;23.374;2022-11-15T01:20:33;38.20;;;22.27;;
11334;SDS011;5722;42.620;23.374;2022-11-15T01:26:10;29.00;;;19.90;;
11334;SDS011;5722;42.620;23.374;2022-11-15T01:35:10;24.63;;;15.37;;
11334;SDS011;5722;42.620;23.374;2022-11-15T01:37:42;20.20;;;14.30;;
11334;SDS011;5722;42.620;23.374;2022-11-15T01:40:25;22.83;;;14.30;;
11334;SDS011;5722;42.620;23.374;2022-11-15T01:46:02;24.67;;;15.10;;
11334;SDS011;5722;42.620;23.374;2022-11-15T01:48:37;26.77;;;18.17;;
11334;SDS011;5722;42.620;23.374;2022-11-15T01:54:03;41.27;;;22.80;;
11334;SDS011;5722;42.620;23.374;2022-11-15T01:56:33;35.30;;;21.33;;
11334;SDS011;5722;42.620;23.374;2022-11-15T01:59:18;35.07;;;23.17;;
11334;SDS011;5722;42.620;23.374;2022-11-15T02:01:50;38.00;;;23.70;;
11334;SDS011;5722;42.620;23.374;2022-11-15T02:04:30;43.90;;;28.30;;
11334;SDS011;5722;42.620;23.374;2022-11-15T02:07:25;43.13;;;25.93;;
11334;SDS011;5722;42.620;23.374;2022-11-15T02:13:02;42.10;;;26.40;;
11334;SDS011;5722;42.620;23.374;2022-11-15T02:15:44;34.73;;;22.37;;
11334;SDS011;5722;42.620;23.374;2022-11-15T02:18:38;34.90;;;19.53;;
11334;SDS011;5722;42.620;23.374;2022-11-15T02:21:29;30.50;;;19.83;;
11334;SDS011;5722;42.620;23.374;2022-11-15T02:33:09;29.53;;;18.47;;
11334;SDS011;5722;42.620;23.374;2022-11-15T02:36:09;32.10;;;17.47;;
11334;SDS011;5722;42.620;23.374;2022-11-15T02:38:40;23.03;;;14.40;;
11334;SDS011;5722;42.620;23.374;2022-11-15T02:41:16;24.33;;;15.00;;
11334;SDS011;5722;42.620;23.374;2022-11-15T02:43:54;26.83;;;15.90;;
11334;SDS011;5722;42.620;23.374;2022-11-15T02:46:32;28.90;;;18.50;;
11334;SDS011;5722;42.620;23.374;2022-11-15T02:49:19;26.10;;;15.77;;
11334;SDS011;5722;42.620;23.374;2022-11-15T02:51:50;31.70;;;19.80;;
11334;SDS011;5722;42.620;23.374;2022-11-15T02:54:20;32.10;;;20.63;;
11334;SDS011;5722;42.620;23.374;2022-11-15T02:56:55;42.40;;;20.67;;
11334;SDS011;5722;42.620;23.374;2022-11-15T03:02:15;47.33;;;24.90;;
11334;SDS011;5722;42.620;23.374;2022-11-15T03:07:53;41.27;;;22.17;;
11334;SDS011;5722;42.620;23.374;2022-11-15T03:13:48;29.63;;;18.27;;
11334;SDS011;5722;42.620;23.374;2022-11-15T03:16:29;30.60;;;18.30;;
11334;SDS011;5722;42.620;23.374;2022-11-15T03:19:13;32.87;;;18.03;;
11334;SDS011;5722;42.620;23.374;2022-11-15T03:22:02;47.13;;;28.13;;
11334;SDS011;5722;42.620;23.374;2022-11-15T03:25:10;49.07;;;27.63;;
11334;SDS011;5722;42.620;23.374;2022-11-15T03:28:11;61.90;;;35.13;;
11334;SDS011;5722;42.620;23.374;2022-11-15T03:30:45;53.40;;;31.53;;
11334;SDS011;5722;42.620;23.374;2022-11-15T03:33:18;50.27;;;29.13;;
11334;SDS011;5722;42.620;23.374;2022-11-15T03:35:49;56.13;;;32.07;;
11334;SDS011;5722;42.620;23.374;2022-11-15T03:38:29;46.57;;;27.30;;
11334;SDS011;5722;42.620;23.374;2022-11-15T03:41:04;39.80;;;24.60;;
11334;SDS011;5722;42.620;23.374;2022-11-15T03:46:55;26.57;;;18.00;;
11334;SDS011;5722;42.620;23.374;2022-11-15T03:49:40;26.83;;;18.77;;
11334;SDS011;5722;42.620;23.374;2022-11-15T03:52:21;27.83;;;19.63;;
11334;SDS011;5722;42.620;23.374;2022-11-15T04:01:06;29.67;;;19.30;;
11334;SDS011;5722;42.620;23.374;2022-11-15T04:03:45;28.23;;;19.70;;
11334;SDS011;5722;42.620;23.374;2022-11-15T04:06:22;33.30;;;19.67;;
11334;SDS011;5722;42.620;23.374;2022-11-15T04:09:19;27.30;;;18.87;;
11334;SDS011;5722;42.620;23.374;2022-11-15T04:11:51;25.57;;;18.43;;
11334;SDS011;5722;42.620;23.374;2022-11-15T04:14:21;26.03;;;19.17;;
11334;SDS011;5722;42.620;23.374;2022-11-15T04:17:07;29.90;;;18.37;;
11334;SDS011;5722;42.620;23.374;2022-11-15T04:19:37;25.80;;;18.27;;
11334;SDS011;5722;42.620;23.374;2022-11-15T04:22:44;27.30;;;17.20;;
11334;SDS011;5722;42.620;23.374;2022-11-15T04:25:37;25.43;;;16.47;;
11334;SDS011;5722;42.620;23.374;2022-11-15T04:28:42;22.03;;;15.97;;
11334;SDS011;5722;42.620;23.374;2022-11-15T04:40:17;35.40;;;21.20;;
11334;SDS011;5722;42.620;23.374;2022-11-15T04:42:47;41.03;;;23.00;;
11334;SDS011;5722;42.620;23.374;2022-11-15T04:45:23;57.50;;;24.90;;
11334;SDS011;5722;42.620;23.374;2022-11-15T04:53:05;170.93;;;30.57;;
11334;SDS011;5722;42.620;23.374;2022-11-15T04:55:47;175.93;;;33.73;;
11334;SDS011;5722;42.620;23.374;2022-11-15T04:58:18;128.37;;;32.73;;
11334;SDS011;5722;42.620;23.374;2022-11-15T05:04:00;101.67;;;26.77;;
11334;SDS011;5722;42.620;23.374;2022-11-15T05:06:48;56.73;;;26.07;;
11334;SDS011;5722;42.620;23.374;2022-11-15T05:10:02;87.60;;;24.33;;
11334;SDS011;5722;42.620;23.374;2022-11-15T05:18:30;36.80;;;22.77;;
11334;SDS011;5722;42.620;23.374;2022-11-15T05:21:10;60.40;;;25.27;;
11334;SDS011;5722;42.620;23.374;2022-11-15T05:23:54;63.87;;;26.00;;
11334;SDS011;5722;42.620;23.374;2022-11-15T05:37:25;72.80;;;27.27;;
11334;SDS011;5722;42.620;23.374;2022-11-15T05:40:01;69.93;;;31.17;;
11334;SDS011;5722;42.620;23.374;2022-11-15T05:45:32;60.70;;;30.37;;
11334;SDS011;5722;42.620;23.374;2022-11-15T05:48:01;78.03;;;31.57;;
11334;SDS011;5722;42.620;23.374;2022-11-15T05:50:33;84.60;;;32.50;;
11334;SDS011;5722;42.620;23.374;2022-11-15T05:53:11;97.57;;;33.60;;
11334;SDS011;5722;42.620;23.374;2022-11-15T05:55:40;106.67;;;35.50;;
11334;SDS011;5722;42.620;23.374;2022-11-15T05:58:21;108.23;;;35.50;;
11334;SDS011;5722;42.620;23.374;2022-11-15T06:00:49;112.07;;;38.63;;
11334;SDS011;5722;42.620;23.374;2022-11-15T06:05:59;133.97;;;39.40;;
11334;SDS011;5722;42.620;23.374;2022-11-15T06:08:40;180.10;;;45.07;;
11334;SDS011;5722;42.620;23.374;2022-11-15T06:11:13;181.43;;;42.47;;
11334;SDS011;5722;42.620;23.374;2022-11-15T06:13:41;220.07;;;43.20;;
11334;SDS011;5722;42.620;23.374;2022-11-15T06:19:10;275.30;;;40.03;;
11334;SDS011;5722;42.620;23.374;2022-11-15T06:21:39;218.73;;;38.13;;
11334;SDS011;5722;42.620;23.374;2022-11-15T06:24:12;186.90;;;37.67;;
11334;SDS011;5722;42.620;23.374;2022-11-15T06:26:42;238.80;;;37.77;;
11334;SDS011;5722;42.620;23.374;2022-11-15T06:29:12;158.20;;;34.00;;
11334;SDS011;5722;42.620;23.374;2022-11-15T06:31:39;246.77;;;35.73;;
11334;SDS011;5722;42.620;23.374;2022-11-15T06:34:28;155.27;;;37.97;;
11334;SDS011;5722;42.620;23.374;2022-11-15T06:37:00;215.93;;;37.20;;
11334;SDS011;5722;42.620;23.374;2022-11-15T06:42:21;218.43;;;36.63;;
11334;SDS011;5722;42.620;23.374;2022-11-15T06:45:03;163.80;;;37.73;;
11334;SDS011;5722;42.620;23.374;2022-11-15T06:47:45;161.37;;;38.63;;
11334;SDS011;5722;42.620;23.374;2022-11-15T06:50:20;154.20;;;38.13;;
11334;SDS011;5722;42.620;23.374;2022-11-15T06:53:02;113.53;;;38.10;;
11334;SDS011;5722;42.620;23.374;2022-11-15T06:55:44;91.33;;;38.47;;
11334;SDS011;5722;42.620;23.374;2022-11-15T06:58:27;115.10;;;39.40;;
11334;SDS011;5722;42.620;23.374;2022-11-15T07:01:11;383.80;;;44.47;;
11334;SDS011;5722;42.620;23.374;2022-11-15T07:04:18;117.30;;;38.30;;
11334;SDS011;5722;42.620;23.374;2022-11-15T07:06:46;112.60;;;37.07;;
11334;SDS011;5722;42.620;23.374;2022-11-15T07:09:16;104.40;;;36.13;;
11334;SDS011;5722;42.620;23.374;2022-11-15T07:11:54;111.30;;;35.90;;
11334;SDS011;5722;42.620;23.374;2022-11-15T07:14:54;98.17;;;34.43;;
11334;SDS011;5722;42.620;23.374;2022-11-15T07:17:26;116.20;;;33.33;;
11334;SDS011;5722;42.620;23.374;2022-11-15T07:20:02;74.60;;;35.33;;
11334;SDS011;5722;42.620;23.374;2022-11-15T07:22:30;150.17;;;35.17;;
11334;SDS011;5722;42.620;23.374;2022-11-15T07:25:03;103.57;;;35.83;;
11334;SDS011;5722;42.620;23.374;2022-11-15T07:27:38;92.63;;;33.07;;
11334;SDS011;5722;42.620;23.374;2022-11-15T07:30:12;63.33;;;31.43;;
11334;SDS011;5722;42.620;23.374;2022-11-15T07:32:40;68.00;;;31.43;;
11334;SDS011;5722;42.620;23.374;2022-11-15T07:35:10;75.63;;;32.10;;
11334;SDS011;5722;42.620;23.374;2022-11-15T07:37:37;59.30;;;31.17;;
11334;SDS011;5722;42.620;23.374;2022-11-15T07:40:20;66.77;;;31.30;;
11334;SDS011;5722;42.620;23.374;2022-11-15T07:42:48;62.90;;;30.93;;
11334;SDS011;5722;42.620;23.374;2022-11-15T07:45:26;63.23;;;31.03;;
11334;SDS011;5722;42.620;23.374;2022-11-15T07:48:11;50.43;;;31.27;;
11334;SDS011;5722;42.620;23.374;2022-11-15T07:50:52;50.37;;;31.57;;
11334;SDS011;5722;42.620;23.374;2022-11-15T07:53:29;57.27;;;32.93;;
11334;SDS011;5722;42.620;23.374;2022-11-15T07:56:00;49.80;;;30.70;;
11334;SDS011;5722;42.620;23.374;2022-11-15T07:58:32;49.73;;;29.63;;
11334;SDS011;5722;42.620;23.374;2022-11-15T08:04:00;47.63;;;29.93;;
11334;SDS011;5722;42.620;23.374;2022-11-15T08:06:28;59.27;;;35.17;;
11334;SDS011;5722;42.620;23.374;2022-11-15T08:08:58;55.57;;;33.23;;
11334;SDS011;5722;42.620;23.374;2022-11-15T08:11:48;57.53;;;31.80;;
11334;SDS011;5722;42.620;23.374;2022-11-15T08:14:16;61.33;;;35.93;;
11334;SDS011;5722;42.620;23.374;2022-11-15T08:16:46;61.93;;;35.30;;
11334;SDS011;5722;42.620;23.374;2022-11-15T08:19:19;68.73;;;37.20;;
11334;SDS011;5722;42.620;23.374;2022-11-15T08:21:53;62.60;;;37.17;;
11334;SDS011;5722;42.620;23.374;2022-11-15T08:29:58;66.70;;;39.27;;
11334;SDS011;5722;42.620;23.374;2022-11-15T08:32:32;71.60;;;38.40;;
11334;SDS011;5722;42.620;23.374;2022-11-15T08:35:24;63.80;;;37.53;;
11334;SDS011;5722;42.620;23.374;2022-11-15T08:37:54;61.90;;;37.97;;
11334;SDS011;5722;42.620;23.374;2022-11-15T08:40:25;61.83;;;38.13;;
11334;SDS011;5722;42.620;23.374;2022-11-15T08:43:02;68.83;;;39.30;;
11334;SDS011;5722;42.620;23.374;2022-11-15T08:45:36;66.87;;;39.53;;
11334;SDS011;5722;42.620;23.374;2022-11-15T08:48:04;62.83;;;38.27;;
11334;SDS011;5722;42.620;23.374;2022-11-15T08:50:37;70.13;;;39.50;;
11334;SDS011;5722;42.620;23.374;2022-11-15T08:53:05;67.57;;;39.10;;
11334;SDS011;5722;42.620;23.374;2022-11-15T08:55:45;67.50;;;38.17;;
11334;SDS011;5722;42.620;23.374;2022-11-15T08:58:17;67.90;;;39.37;;
11334;SDS011;5722;42.620;23.374;2022-11-15T09:00:48;69.97;;;39.70;;
11334;SDS011;5722;42.620;23.374;2022-11-15T09:03:21;69.57;;;39.53;;
11334;SDS011;5722;42.620;23.374;2022-11-15T09:05:55;69.37;;;39.53;;
11334;SDS011;5722;42.620;23.374;2022-11-15T09:08:30;63.47;;;39.00;;
11334;SDS011;5722;42.620;23.374;2022-11-15T09:10:58;64.43;;;40.03;;
11334;SDS011;5722;42.620;23.374;2022-11-15T09:13:27;71.73;;;40.83;;
11334;SDS011;5722;42.620;23.374;2022-11-15T09:16:07;74.17;;;41.10;;
11334;SDS011;5722;42.620;23.374;2022-11-15T09:18:41;74.33;;;39.33;;
11334;SDS011;5722;42.620;23.374;2022-11-15T09:21:12;67.00;;;38.27;;
11334;SDS011;5722;42.620;23.374;2022-11-15T09:23:50;63.83;;;38.93;;
11334;SDS011;5722;42.620;23.374;2022-11-15T09:26:18;62.20;;;38.93;;
11334;SDS011;5722;42.620;23.374;2022-11-15T09:29:00;66.43;;;37.00;;
11334;SDS011;5722;42.620;23.374;2022-11-15T09:31:36;65.83;;;40.93;;
11334;SDS011;5722;42.620;23.374;2022-11-15T09:34:08;67.73;;;39.23;;
11334;SDS011;5722;42.620;23.374;2022-11-15T09:36:47;65.97;;;39.13;;
11334;SDS011;5722;42.620;23.374;2022-11-15T09:39:18;58.40;;;36.93;;
11334;SDS011;5722;42.620;23.374;2022-11-15T09:44:41;63.27;;;38.90;;
11334;SDS011;5722;42.620;23.374;2022-11-15T09:50:00;67.40;;;39.23;;
11334;SDS011;5722;42.620;23.374;2022-11-15T09:55:15;78.13;;;42.07;;
11334;SDS011;5722;42.620;23.374;2022-11-15T09:57:49;77.77;;;46.83;;
11334;SDS011;5722;42.620;23.374;2022-11-15T10:00:27;67.27;;;42.17;;
11334;SDS011;5722;42.620;23.374;2022-11-15T10:03:08;66.93;;;39.73;;
11334;SDS011;5722;42.620;23.374;2022-11-15T10:05:41;72.93;;;42.33;;
11334;SDS011;5722;42.620;23.374;2022-11-15T10:08:16;75.07;;;43.60;;
11334;SDS011;5722;42.620;23.374;2022-11-15T10:10:55;66.80;;;40.00;;
11334;SDS011;5722;42.620;23.374;2022-11-15T10:13:30;69.13;;;43.27;;
11334;SDS011;5722;42.620;23.374;2022-11-15T10:18:52;78.33;;;42.73;;
11334;SDS011;5722;42.620;23.374;2022-11-15T10:21:29;73.03;;;44.20;;
11334;SDS011;5722;42.620;23.374;2022-11-15T10:24:11;77.83;;;45.03;;
11334;SDS011;5722;42.620;23.374;2022-11-15T10:26:46;69.73;;;43.23;;
11334;SDS011;5722;42.620;23.374;2022-11-15T10:29:23;68.97;;;41.30;;
11334;SDS011;5722;42.620;23.374;2022-11-15T10:31:57;73.87;;;43.33;;
11334;SDS011;5722;42.620;23.374;2022-11-15T10:34:36;67.10;;;41.67;;
11334;SDS011;5722;42.620;23.374;2022-11-15T10:37:05;68.33;;;41.13;;
11334;SDS011;5722;42.620;23.374;2022-11-15T10:39:43;69.67;;;41.83;;
11334;SDS011;5722;42.620;23.374;2022-11-15T10:42:28;70.83;;;42.47;;
11334;SDS011;5722;42.620;23.374;2022-11-15T10:45:00;75.20;;;43.37;;
11334;SDS011;5722;42.620;23.374;2022-11-15T10:47:34;72.23;;;42.87;;
11334;SDS011;5722;42.620;23.374;2022-11-15T10:50:07;65.90;;;41.17;;
11334;SDS011;5722;42.620;23.374;2022-11-15T10:52:58;63.40;;;41.67;;
11334;SDS011;5722;42.620;23.374;2022-11-15T10:55:29;67.07;;;41.10;;
11334;SDS011;5722;42.620;23.374;2022-11-15T10:58:21;65.13;;;40.33;;
11334;SDS011;5722;42.620;23.374;2022-11-15T11:04:09;59.63;;;39.10;;
11334;SDS011;5722;42.620;23.374;2022-11-15T11:06:56;63.17;;;39.97;;
11334;SDS011;5722;42.620;23.374;2022-11-15T11:09:30;62.13;;;40.00;;
11334;SDS011;5722;42.620;23.374;2022-11-15T11:12:03;61.47;;;39.37;;
11334;SDS011;5722;42.620;23.374;2022-11-15T11:14:56;64.50;;;39.47;;
11334;SDS011;5722;42.620;23.374;2022-11-15T11:17:32;60.30;;;39.77;;
11334;SDS011;5722;42.620;23.374;2022-11-15T11:20:10;56.73;;;36.87;;
11334;SDS011;5722;42.620;23.374;2022-11-15T11:22:49;55.27;;;36.07;;
11334;SDS011;5722;42.620;23.374;2022-11-15T11:25:26;56.33;;;36.90;;
11334;SDS011;5722;42.620;23.374;2022-11-15T11:27:58;63.13;;;37.20;;
11334;SDS011;5722;42.620;23.374;2022-11-15T11:33:16;61.77;;;37.70;;
11334;SDS011;5722;42.620;23.374;2022-11-15T11:36:02;60.23;;;39.00;;
11334;SDS011;5722;42.620;23.374;2022-11-15T11:38:36;59.50;;;39.13;;
11334;SDS011;5722;42.620;23.374;2022-11-15T11:41:12;58.03;;;37.67;;
11334;SDS011;5722;42.620;23.374;2022-11-15T11:43:48;56.87;;;37.23;;
11334;SDS011;5722;42.620;23.374;2022-11-15T11:46:30;55.53;;;37.33;;
11334;SDS011;5722;42.620;23.374;2022-11-15T11:49:24;56.67;;;37.30;;
11334;SDS011;5722;42.620;23.374;2022-11-15T11:51:54;54.43;;;35.00;;
11334;SDS011;5722;42.620;23.374;2022-11-15T11:54:34;53.90;;;35.33;;
11334;SDS011;5722;42.620;23.374;2022-11-15T11:57:05;53.07;;;35.33;;
11334;SDS011;5722;42.620;23.374;2022-11-15T11:59:41;55.80;;;35.77;;
11334;SDS011;5722;42.620;23.374;2022-11-15T12:02:18;54.63;;;36.57;;
11334;SDS011;5722;42.620;23.374;2022-11-15T12:07:34;58.63;;;37.57;;
11334;SDS011;5722;42.620;23.374;2022-11-15T12:10:11;57.93;;;36.23;;
11334;SDS011;5722;42.620;23.374;2022-11-15T12:12:56;61.50;;;35.43;;
11334;SDS011;5722;42.620;23.374;2022-11-15T12:15:39;55.67;;;36.23;;
11334;SDS011;5722;42.620;23.374;2022-11-15T12:18:37;58.40;;;36.77;;
11334;SDS011;5722;42.620;23.374;2022-11-15T12:21:08;53.87;;;35.63;;
11334;SDS011;5722;42.620;23.374;2022-11-15T12:23:43;58.80;;;35.67;;
11334;SDS011;5722;42.620;23.374;2022-11-15T12:26:14;53.83;;;36.33;;
11334;SDS011;5722;42.620;23.374;2022-11-15T12:28:44;51.73;;;36.03;;
11334;SDS011;5722;42.620;23.374;2022-11-15T12:31:24;53.40;;;35.30;;
11334;SDS011;5722;42.620;23.374;2022-11-15T12:33:55;51.50;;;35.97;;
11334;SDS011;5722;42.620;23.374;2022-11-15T12:36:35;48.43;;;34.13;;
11334;SDS011;5722;42.620;23.374;2022-11-15T12:39:06;54.17;;;35.60;;
11334;SDS011;5722;42.620;23.374;2022-11-15T12:45:00;54.30;;;35.87;;
11334;SDS011;5722;42.620;23.374;2022-11-15T12:47:30;56.93;;;36.73;;
11334;SDS011;5722;42.620;23.374;2022-11-15T12:50:03;49.83;;;34.13;;
11334;SDS011;5722;42.620;23.374;2022-11-15T12:52:36;53.33;;;35.37;;
11334;SDS011;5722;42.620;23.374;2022-11-15T12:55:51;59.63;;;35.37;;
11334;SDS011;5722;42.620;23.374;2022-11-15T12:58:46;59.27;;;36.07;;
11334;SDS011;5722;42.620;23.374;2022-11-15T13:04:14;52.13;;;34.53;;
11334;SDS011;5722;42.620;23.374;2022-11-15T13:06:52;53.13;;;35.50;;
11334;SDS011;5722;42.620;23.374;2022-11-15T13:15:45;46.17;;;33.73;;
11334;SDS011;5722;42.620;23.374;2022-11-15T13:24:15;53.23;;;34.17;;
11334;SDS011;5722;42.620;23.374;2022-11-15T13:26:57;51.53;;;34.77;;
11334;SDS011;5722;42.620;23.374;2022-11-15T13:29:35;50.40;;;34.07;;
11334;SDS011;5722;42.620;23.374;2022-11-15T13:32:12;51.30;;;33.70;;
11334;SDS011;5722;42.620;23.374;2022-11-15T13:34:49;46.80;;;32.90;;
11334;SDS011;5722;42.620;23.374;2022-11-15T13:37:33;51.27;;;34.17;;
11334;SDS011;5722;42.620;23.374;2022-11-15T13:40:25;57.40;;;33.13;;
11334;SDS011;5722;42.620;23.374;2022-11-15T13:43:17;45.00;;;33.27;;
11334;SDS011;5722;42.620;23.374;2022-11-15T13:46:15;47.33;;;32.63;;
11334;SDS011;5722;42.620;23.374;2022-11-15T13:54:50;53.47;;;33.57;;
11334;SDS011;5722;42.620;23.374;2022-11-15T13:57:27;48.43;;;33.87;;
11334;SDS011;5722;42.620;23.374;2022-11-15T14:06:04;46.90;;;33.57;;
11334;SDS011;5722;42.620;23.374;2022-11-15T14:08:41;54.70;;;33.40;;
11334;SDS011;5722;42.620;23.374;2022-11-15T14:11:21;48.80;;;33.50;;
11334;SDS011;5722;42.620;23.374;2022-11-15T14:14:04;42.50;;;31.70;;
11334;SDS011;5722;42.620;23.374;2022-11-15T14:16:40;47.63;;;32.07;;
11334;SDS011;5722;42.620;23.374;2022-11-15T14:19:11;51.30;;;33.33;;
11334;SDS011;5722;42.620;23.374;2022-11-15T14:30:43;51.43;;;34.90;;
11334;SDS011;5722;42.620;23.374;2022-11-15T14:33:22;50.60;;;34.17;;
11334;SDS011;5722;42.620;23.374;2022-11-15T14:36:10;56.07;;;35.07;;
11334;SDS011;5722;42.620;23.374;2022-11-15T14:38:46;56.20;;;35.80;;
11334;SDS011;5722;42.620;23.374;2022-11-15T14:41:20;48.90;;;34.30;;
11334;SDS011;5722;42.620;23.374;2022-11-15T14:43:54;65.30;;;35.80;;
11334;SDS011;5722;42.620;23.374;2022-11-15T14:46:40;66.80;;;34.77;;
11334;SDS011;5722;42.620;23.374;2022-11-15T14:49:14;59.17;;;38.73;;
11334;SDS011;5722;42.620;23.374;2022-11-15T14:51:57;63.00;;;41.70;;
11334;SDS011;5722;42.620;23.374;2022-11-15T14:54:33;66.40;;;42.57;;
11334;SDS011;5722;42.620;23.374;2022-11-15T14:57:05;63.53;;;41.80;;
11334;SDS011;5722;42.620;23.374;2022-11-15T14:59:49;76.50;;;43.87;;
11334;SDS011;5722;42.620;23.374;2022-11-15T15:08:09;65.40;;;40.30;;
11334;SDS011;5722;42.620;23.374;2022-11-15T15:10:44;64.93;;;40.67;;
11334;SDS011;5722;42.620;23.374;2022-11-15T15:13:25;67.43;;;42.87;;
11334;SDS011;5722;42.620;23.374;2022-11-15T15:16:01;78.70;;;45.90;;
11334;SDS011;5722;42.620;23.374;2022-11-15T15:18:36;78.77;;;45.97;;
11334;SDS011;5722;42.620;23.374;2022-11-15T15:21:04;76.90;;;47.07;;
11334;SDS011;5722;42.620;23.374;2022-11-15T15:23:44;77.53;;;49.20;;
11334;SDS011;5722;42.620;23.374;2022-11-15T15:26:13;75.87;;;47.60;;
11334;SDS011;5722;42.620;23.374;2022-11-15T15:28:47;85.67;;;49.43;;
11334;SDS011;5722;42.620;23.374;2022-11-15T15:31:22;84.80;;;50.50;;
11334;SDS011;5722;42.620;23.374;2022-11-15T15:34:15;93.27;;;54.60;;
11334;SDS011;5722;42.620;23.374;2022-11-15T15:37:06;93.97;;;56.37;;
11334;SDS011;5722;42.620;23.374;2022-11-15T15:39:42;117.60;;;68.07;;
11334;SDS011;5722;42.620;23.374;2022-11-15T15:42:09;128.70;;;67.83;;
11334;SDS011;5722;42.620;23.374;2022-11-15T15:44:50;136.17;;;71.20;;
11334;SDS011;5722;42.620;23.374;2022-11-15T15:47:26;109.23;;;63.23;;
11334;SDS011;5722;42.620;23.374;2022-11-15T15:50:04;99.83;;;56.53;;
11334;SDS011;5722;42.620;23.374;2022-11-15T15:52:38;105.07;;;59.77;;
11334;SDS011;5722;42.620;23.374;2022-11-15T15:55:15;84.73;;;53.57;;
11334;SDS011;5722;42.620;23.374;2022-11-15T15:57:44;77.53;;;48.17;;
11334;SDS011;5722;42.620;23.374;2022-11-15T16:00:14;62.77;;;41.60;;
11334;SDS011;5722;42.620;23.374;2022-11-15T16:03:06;52.10;;;36.53;;
11334;SDS011;5722;42.620;23.374;2022-11-15T16:05:37;56.33;;;36.80;;
11334;SDS011;5722;42.620;23.374;2022-11-15T16:08:16;57.20;;;37.70;;
11334;SDS011;5722;42.620;23.374;2022-11-15T16:13:41;59.57;;;38.57;;
11334;SDS011;5722;42.620;23.374;2022-11-15T16:16:24;58.70;;;35.23;;
11334;SDS011;5722;42.620;23.374;2022-11-15T16:21:44;65.63;;;38.33;;
11334;SDS011;5722;42.620;23.374;2022-11-15T16:24:18;65.93;;;37.93;;
11334;SDS011;5722;42.620;23.374;2022-11-15T16:27:09;63.03;;;37.03;;
11334;SDS011;5722;42.620;23.374;2022-11-15T16:29:45;54.07;;;36.30;;
11334;SDS011;5722;42.620;23.374;2022-11-15T16:32:23;60.23;;;38.70;;
11334;SDS011;5722;42.620;23.374;2022-11-15T16:34:54;56.30;;;38.40;;
11334;SDS011;5722;42.620;23.374;2022-11-15T16:37:58;93.43;;;57.03;;
11334;SDS011;5722;42.620;23.374;2022-11-15T16:40:34;110.53;;;70.70;;
11334;SDS011;5722;42.620;23.374;2022-11-15T16:43:10;75.57;;;46.47;;
11334;SDS011;5722;42.620;23.374;2022-11-15T16:45:46;64.03;;;40.10;;
11334;SDS011;5722;42.620;23.374;2022-11-15T16:48:21;61.40;;;41.63;;
11334;SDS011;5722;42.620;23.374;2022-11-15T16:51:06;64.83;;;43.03;;
11334;SDS011;5722;42.620;23.374;2022-11-15T16:53:49;67.83;;;42.80;;
11334;SDS011;5722;42.620;23.374;2022-11-15T16:56:23;62.70;;;42.43;;
11334;SDS011;5722;42.620;23.374;2022-11-15T16:58:54;69.40;;;44.90;;
11334;SDS011;5722;42.620;23.374;2022-11-15T17:01:36;81.53;;;50.90;;
11334;SDS011;5722;42.620;23.374;2022-11-15T17:04:17;79.13;;;49.60;;
11334;SDS011;5722;42.620;23.374;2022-11-15T17:06:52;87.50;;;49.80;;
11334;SDS011;5722;42.620;23.374;2022-11-15T17:09:22;78.30;;;46.47;;
11334;SDS011;5722;42.620;23.374;2022-11-15T17:11:54;67.43;;;43.57;;
11334;SDS011;5722;42.620;23.374;2022-11-15T17:14:37;69.87;;;43.33;;
11334;SDS011;5722;42.620;23.374;2022-11-15T17:17:19;95.40;;;59.20;;
11334;SDS011;5722;42.620;23.374;2022-11-15T17:19:57;97.93;;;58.30;;
11334;SDS011;5722;42.620;23.374;2022-11-15T17:22:31;105.90;;;60.83;;
11334;SDS011;5722;42.620;23.374;2022-11-15T17:25:03;100.07;;;58.33;;
11334;SDS011;5722;42.620;23.374;2022-11-15T17:28:14;88.37;;;56.37;;
11334;SDS011;5722;42.620;23.374;2022-11-15T17:30:51;83.97;;;51.83;;
11334;SDS011;5722;42.620;23.374;2022-11-15T17:36:09;66.73;;;45.10;;
11334;SDS011;5722;42.620;23.374;2022-11-15T17:38:45;75.43;;;45.90;;
11334;SDS011;5722;42.620;23.374;2022-11-15T17:41:25;84.50;;;52.80;;
11334;SDS011;5722;42.620;23.374;2022-11-15T17:43:59;86.03;;;49.63;;
11334;SDS011;5722;42.620;23.374;2022-11-15T17:46:33;71.83;;;46.10;;
11334;SDS011;5722;42.620;23.374;2022-11-15T17:49:10;76.57;;;47.93;;
11334;SDS011;5722;42.620;23.374;2022-11-15T17:51:41;83.77;;;49.90;;
11334;SDS011;5722;42.620;23.374;2022-11-15T17:54:12;87.70;;;51.77;;
11334;SDS011;5722;42.620;23.374;2022-11-15T17:56:49;73.33;;;48.17;;
11334;SDS011;5722;42.620;23.374;2022-11-15T17:59:17;83.63;;;50.07;;
11334;SDS011;5722;42.620;23.374;2022-11-15T18:01:58;84.43;;;48.50;;
11334;SDS011;5722;42.620;23.374;2022-11-15T18:04:30;85.80;;;50.27;;
11334;SDS011;5722;42.620;23.374;2022-11-15T18:07:40;85.07;;;51.20;;
11334;SDS011;5722;42.620;23.374;2022-11-15T18:10:09;82.80;;;49.13;;
11334;SDS011;5722;42.620;23.374;2022-11-15T18:12:36;85.13;;;49.77;;
11334;SDS011;5722;42.620;23.374;2022-11-15T18:15:04;84.83;;;52.27;;
11334;SDS011;5722;42.620;23.374;2022-11-15T18:17:35;82.87;;;50.37;;
11334;SDS011;5722;42.620;23.374;2022-11-15T18:20:07;83.33;;;50.77;;
11334;SDS011;5722;42.620;23.374;2022-11-15T18:28:20;87.13;;;52.03;;
11334;SDS011;5722;42.620;23.374;2022-11-15T18:31:03;86.83;;;51.53;;
11334;SDS011;5722;42.620;23.374;2022-11-15T18:33:34;82.73;;;53.63;;
11334;SDS011;5722;42.620;23.374;2022-11-15T18:36:06;94.13;;;54.20;;